sensor_id;sensor_type;location;lat;lon;timestamp;pressure;altitude;pressure_sealevel;temperature;humidity
53440;BME280;39333;47.044;15.080;2022-12-20T00:01:30;97438.59;;;-1.68;76.30
53440;BME280;39333;47.044;15.080;2022-12-20T00:03:59;97437.53;;;-1.66;76.39
53440;BME280;39333;47.044;15.080;2022-12-20T00:06:28;97440.81;;;-1.64;76.35
53440;BME280;39333;47.044;15.080;2022-12-20T00:09:00;97435.44;;;-1.72;75.93
53440;BME280;39333;47.044;15.080;2022-12-20T00:11:27;97435.31;;;-1.70;76.57
53440;BME280;39333;47.044;15.080;2022-12-20T00:13:54;97436.69;;;-1.66;76.34
53440;BME280;39333;47.044;15.080;2022-12-20T00:16:23;97433.16;;;-1.65;76.53
53440;BME280;39333;47.044;15.080;2022-12-20T00:18:52;97433.66;;;-1.62;76.06
53440;BME280;39333;47.044;15.080;2022-12-20T00:21:19;97429.59;;;-1.64;76.10
53440;BME280;39333;47.044;15.080;2022-12-20T00:23:47;97429.44;;;-1.63;75.98
53440;BME280;39333;47.044;15.080;2022-12-20T00:26:19;97424.38;;;-1.64;75.96
53440;BME280;39333;47.044;15.080;2022-12-20T00:28:47;97424.78;;;-1.69;75.85
53440;BME280;39333;47.044;15.080;2022-12-20T00:31:16;97418.50;;;-1.66;75.99
53440;BME280;39333;47.044;15.080;2022-12-20T00:33:46;97415.63;;;-1.63;75.77
53440;BME280;39333;47.044;15.080;2022-12-20T00:36:13;97417.28;;;-1.62;75.88
53440;BME280;39333;47.044;15.080;2022-12-20T00:38:43;97423.81;;;-1.58;75.68
53440;BME280;39333;47.044;15.080;2022-12-20T00:41:12;97424.78;;;-1.69;75.25
53440;BME280;39333;47.044;15.080;2022-12-20T00:43:40;97412.97;;;-1.92;75.53
53440;BME280;39333;47.044;15.080;2022-12-20T00:46:10;97397.81;;;-1.97;76.05
53440;BME280;39333;47.044;15.080;2022-12-20T00:48:37;97409.56;;;-1.93;76.38
53440;BME280;39333;47.044;15.080;2022-12-20T00:51:09;97409.03;;;-1.96;76.26
53440;BME280;39333;47.044;15.080;2022-12-20T00:53:37;97409.28;;;-1.90;76.74
53440;BME280;39333;47.044;15.080;2022-12-20T00:56:04;97402.19;;;-1.88;76.51
53440;BME280;39333;47.044;15.080;2022-12-20T00:58:33;97407.25;;;-1.86;76.25
53440;BME280;39333;47.044;15.080;2022-12-20T01:01:00;97404.91;;;-1.99;76.46
53440;BME280;39333;47.044;15.080;2022-12-20T01:03:28;97406.78;;;-2.11;76.55
53440;BME280;39333;47.044;15.080;2022-12-20T01:06:00;97401.34;;;-2.07;77.09
53440;BME280;39333;47.044;15.080;2022-12-20T01:08:29;97402.69;;;-2.23;76.92
53440;BME280;39333;47.044;15.080;2022-12-20T01:11:02;97406.47;;;-2.36;77.46
53440;BME280;39333;47.044;15.080;2022-12-20T01:13:29;97399.19;;;-2.42;77.76
53440;BME280;39333;47.044;15.080;2022-12-20T01:16:03;97398.69;;;-2.36;78.68
53440;BME280;39333;47.044;15.080;2022-12-20T01:18:31;97392.00;;;-2.29;78.52
53440;BME280;39333;47.044;15.080;2022-12-20T01:21:07;97400.50;;;-2.27;78.02
53440;BME280;39333;47.044;15.080;2022-12-20T01:23:34;97392.22;;;-2.42;78.68
53440;BME280;39333;47.044;15.080;2022-12-20T01:26:03;97396.91;;;-2.36;78.51
53440;BME280;39333;47.044;15.080;2022-12-20T01:28:31;97387.03;;;-2.42;78.91
53440;BME280;39333;47.044;15.080;2022-12-20T01:30:58;97388.16;;;-2.44;78.93
53440;BME280;39333;47.044;15.080;2022-12-20T01:33:26;97381.88;;;-2.32;79.27
53440;BME280;39333;47.044;15.080;2022-12-20T01:36:05;97379.97;;;-2.30;78.89
53440;BME280;39333;47.044;15.080;2022-12-20T01:38:34;97377.09;;;-2.37;79.06
53440;BME280;39333;47.044;15.080;2022-12-20T01:41:02;97372.56;;;-2.44;79.35
53440;BME280;39333;47.044;15.080;2022-12-20T01:43:46;97368.03;;;-2.42;79.25
53440;BME280;39333;47.044;15.080;2022-12-20T01:46:13;97363.84;;;-2.34;79.73
53440;BME280;39333;47.044;15.080;2022-12-20T01:48:43;97364.41;;;-2.30;79.74
53440;BME280;39333;47.044;15.080;2022-12-20T01:51:12;97358.09;;;-2.37;79.32
53440;BME280;39333;47.044;15.080;2022-12-20T01:53:39;97351.81;;;-2.35;79.69
53440;BME280;39333;47.044;15.080;2022-12-20T01:56:06;97355.09;;;-2.23;79.42
53440;BME280;39333;47.044;15.080;2022-12-20T01:58:36;97356.22;;;-2.16;79.26
53440;BME280;39333;47.044;15.080;2022-12-20T02:01:03;97355.66;;;-2.20;78.86
53440;BME280;39333;47.044;15.080;2022-12-20T02:03:31;97342.53;;;-2.28;78.92
53440;BME280;39333;47.044;15.080;2022-12-20T02:06:13;97344.31;;;-2.19;79.19
53440;BME280;39333;47.044;15.080;2022-12-20T02:08:41;97341.06;;;-2.11;79.02
53440;BME280;39333;47.044;15.080;2022-12-20T02:11:23;97333.38;;;-2.03;78.65
53440;BME280;39333;47.044;15.080;2022-12-20T02:16:31;97333.38;;;-1.93;77.92
53440;BME280;39333;47.044;15.080;2022-12-20T02:19:14;97324.91;;;-1.95;78.19
53440;BME280;39333;47.044;15.080;2022-12-20T02:21:56;97331.19;;;-1.98;77.81
53440;BME280;39333;47.044;15.080;2022-12-20T02:24:46;97333.38;;;-2.03;78.17
53440;BME280;39333;47.044;15.080;2022-12-20T02:27:32;97315.88;;;-2.20;78.41
53440;BME280;39333;47.044;15.080;2022-12-20T02:32:56;97313.13;;;-2.28;79.13
53440;BME280;39333;47.044;15.080;2022-12-20T02:35:28;97310.28;;;-2.16;79.21
53440;BME280;39333;47.044;15.080;2022-12-20T02:37:59;97305.06;;;-2.06;78.54
53440;BME280;39333;47.044;15.080;2022-12-20T02:40:29;97310.25;;;-2.06;78.32
53440;BME280;39333;47.044;15.080;2022-12-20T02:43:00;97307.41;;;-2.03;78.32
53440;BME280;39333;47.044;15.080;2022-12-20T02:45:32;97308.78;;;-1.99;77.94
53440;BME280;39333;47.044;15.080;2022-12-20T02:50:50;97301.94;;;-2.00;77.96
53440;BME280;39333;47.044;15.080;2022-12-20T02:53:19;97294.94;;;-2.19;78.23
53440;BME280;39333;47.044;15.080;2022-12-20T03:01:47;97293.31;;;-2.20;78.70
53440;BME280;39333;47.044;15.080;2022-12-20T03:04:17;97280.72;;;-2.15;78.29
53440;BME280;39333;47.044;15.080;2022-12-20T03:06:57;97287.72;;;-2.15;78.27
53440;BME280;39333;47.044;15.080;2022-12-20T03:09:24;97278.28;;;-2.16;78.32
53440;BME280;39333;47.044;15.080;2022-12-20T03:11:52;97284.97;;;-2.14;78.32
53440;BME280;39333;47.044;15.080;2022-12-20T03:14:19;97280.88;;;-2.16;78.71
53440;BME280;39333;47.044;15.080;2022-12-20T03:16:48;97284.69;;;-2.30;78.51
53440;BME280;39333;47.044;15.080;2022-12-20T03:19:15;97277.56;;;-2.47;79.21
53440;BME280;39333;47.044;15.080;2022-12-20T03:21:42;97270.75;;;-2.48;79.78
53440;BME280;39333;47.044;15.080;2022-12-20T03:24:11;97269.50;;;-2.34;79.73
53440;BME280;39333;47.044;15.080;2022-12-20T03:26:39;97268.97;;;-2.38;79.00
53440;BME280;39333;47.044;15.080;2022-12-20T03:29:06;97264.31;;;-2.44;79.09
53440;BME280;39333;47.044;15.080;2022-12-20T03:31:33;97258.97;;;-2.52;79.28
53440;BME280;39333;47.044;15.080;2022-12-20T03:34:00;97266.63;;;-2.60;79.82
53440;BME280;39333;47.044;15.080;2022-12-20T03:36:27;97279.19;;;-2.56;80.01
53440;BME280;39333;47.044;15.080;2022-12-20T03:38:58;97268.81;;;-2.56;79.96
53440;BME280;39333;47.044;15.080;2022-12-20T03:41:28;97277.28;;;-2.63;80.30
53440;BME280;39333;47.044;15.080;2022-12-20T03:43:55;97270.19;;;-2.61;80.28
53440;BME280;39333;47.044;15.080;2022-12-20T03:46:23;97259.78;;;-2.61;80.33
53440;BME280;39333;47.044;15.080;2022-12-20T03:48:50;97265.25;;;-2.55;80.20
53440;BME280;39333;47.044;15.080;2022-12-20T03:51:17;97250.38;;;-2.53;80.00
53440;BME280;39333;47.044;15.080;2022-12-20T03:53:44;97249.56;;;-2.43;80.11
53440;BME280;39333;47.044;15.080;2022-12-20T03:56:13;97249.00;;;-2.37;79.90
53440;BME280;39333;47.044;15.080;2022-12-20T03:58:41;97251.59;;;-2.37;79.60
53440;BME280;39333;47.044;15.080;2022-12-20T04:01:19;97254.75;;;-2.43;79.68
53440;BME280;39333;47.044;15.080;2022-12-20T04:03:47;97250.91;;;-2.39;79.69
53440;BME280;39333;47.044;15.080;2022-12-20T04:06:14;97253.09;;;-2.54;78.85
53440;BME280;39333;47.044;15.080;2022-12-20T04:08:41;97267.97;;;-2.56;79.22
53440;BME280;39333;47.044;15.080;2022-12-20T04:11:10;97267.72;;;-2.63;78.97
53440;BME280;39333;47.044;15.080;2022-12-20T04:13:54;97257.47;;;-2.64;79.56
53440;BME280;39333;47.044;15.080;2022-12-20T04:16:23;97266.75;;;-2.52;79.80
53440;BME280;39333;47.044;15.080;2022-12-20T04:18:51;97261.44;;;-2.51;79.68
53440;BME280;39333;47.044;15.080;2022-12-20T04:21:23;97263.88;;;-2.59;79.43
53440;BME280;39333;47.044;15.080;2022-12-20T04:23:53;97266.75;;;-2.62;79.58
53440;BME280;39333;47.044;15.080;2022-12-20T04:26:22;97268.09;;;-2.58;79.57
53440;BME280;39333;47.044;15.080;2022-12-20T04:28:49;97258.84;;;-2.51;79.49
53440;BME280;39333;47.044;15.080;2022-12-20T04:31:17;97260.88;;;-2.54;79.21
53440;BME280;39333;47.044;15.080;2022-12-20T04:33:51;97260.34;;;-2.48;79.26
53440;BME280;39333;47.044;15.080;2022-12-20T04:36:19;97252.00;;;-2.42;79.11
53440;BME280;39333;47.044;15.080;2022-12-20T04:38:48;97256.09;;;-2.49;78.99
53440;BME280;39333;47.044;15.080;2022-12-20T04:41:15;97258.28;;;-2.64;79.18
53440;BME280;39333;47.044;15.080;2022-12-20T04:43:55;97253.47;;;-2.59;79.28
53440;BME280;39333;47.044;15.080;2022-12-20T04:46:28;97247.22;;;-2.56;79.65
53440;BME280;39333;47.044;15.080;2022-12-20T04:48:56;97248.59;;;-2.52;79.71
53440;BME280;39333;47.044;15.080;2022-12-20T04:51:26;97246.38;;;-2.57;79.42
53440;BME280;39333;47.044;15.080;2022-12-20T04:53:53;97244.22;;;-2.61;79.59
53440;BME280;39333;47.044;15.080;2022-12-20T04:56:44;97237.63;;;-2.75;79.75
53440;BME280;39333;47.044;15.080;2022-12-20T04:59:16;97240.22;;;-2.75;79.97
53440;BME280;39333;47.044;15.080;2022-12-20T05:01:45;97227.09;;;-2.83;80.37
53440;BME280;39333;47.044;15.080;2022-12-20T05:04:20;97226.72;;;-2.78;80.64
53440;BME280;39333;47.044;15.080;2022-12-20T05:06:47;97227.22;;;-2.75;80.59
53440;BME280;39333;47.044;15.080;2022-12-20T05:09:14;97229.56;;;-2.72;80.33
53440;BME280;39333;47.044;15.080;2022-12-20T05:11:40;97233.13;;;-2.73;80.40
53440;BME280;39333;47.044;15.080;2022-12-20T05:14:07;97223.84;;;-2.66;80.55
53440;BME280;39333;47.044;15.080;2022-12-20T05:16:34;97229.84;;;-2.56;79.98
53440;BME280;39333;47.044;15.080;2022-12-20T05:19:04;97228.22;;;-2.57;79.68
53440;BME280;39333;47.044;15.080;2022-12-20T05:21:35;97223.97;;;-2.67;80.03
53440;BME280;39333;47.044;15.080;2022-12-20T05:24:21;97223.84;;;-2.56;79.91
53440;BME280;39333;47.044;15.080;2022-12-20T05:27:18;97224.41;;;-2.53;79.26
53440;BME280;39333;47.044;15.080;2022-12-20T05:29:45;97227.16;;;-2.44;79.70
53440;BME280;39333;47.044;15.080;2022-12-20T05:32:12;97228.22;;;-2.57;78.94
53440;BME280;39333;47.044;15.080;2022-12-20T05:34:41;97223.03;;;-2.57;79.10
53440;BME280;39333;47.044;15.080;2022-12-20T05:37:08;97223.31;;;-2.50;79.24
53440;BME280;39333;47.044;15.080;2022-12-20T05:39:37;97217.72;;;-2.45;79.06
53440;BME280;39333;47.044;15.080;2022-12-20T05:42:09;97219.47;;;-2.36;78.58
53440;BME280;39333;47.044;15.080;2022-12-20T05:44:36;97220.16;;;-2.34;78.22
53440;BME280;39333;47.044;15.080;2022-12-20T05:47:03;97210.19;;;-2.29;77.80
53440;BME280;39333;47.044;15.080;2022-12-20T05:49:33;97203.75;;;-2.35;78.18
53440;BME280;39333;47.044;15.080;2022-12-20T05:52:03;97199.38;;;-2.34;78.02
53440;BME280;39333;47.044;15.080;2022-12-20T05:54:29;97208.00;;;-2.43;78.36
53440;BME280;39333;47.044;15.080;2022-12-20T05:57:14;97204.03;;;-2.38;78.53
53440;BME280;39333;47.044;15.080;2022-12-20T05:59:41;97198.44;;;-2.33;78.58
53440;BME280;39333;47.044;15.080;2022-12-20T06:02:14;97196.94;;;-2.36;78.63
53440;BME280;39333;47.044;15.080;2022-12-20T06:04:42;97191.72;;;-2.36;78.73
53440;BME280;39333;47.044;15.080;2022-12-20T06:07:20;97194.88;;;-2.42;79.05
53440;BME280;39333;47.044;15.080;2022-12-20T06:09:51;97203.91;;;-2.46;78.89
53440;BME280;39333;47.044;15.080;2022-12-20T06:12:23;97204.59;;;-2.44;79.08
53440;BME280;39333;47.044;15.080;2022-12-20T06:14:50;97204.16;;;-2.39;79.32
53440;BME280;39333;47.044;15.080;2022-12-20T06:17:18;97195.41;;;-2.38;79.20
53440;BME280;39333;47.044;15.080;2022-12-20T06:19:47;97208.13;;;-2.35;79.02
53440;BME280;39333;47.044;15.080;2022-12-20T06:22:15;97207.31;;;-2.36;79.25
53440;BME280;39333;47.044;15.080;2022-12-20T06:24:47;97205.28;;;-2.52;78.60
53440;BME280;39333;47.044;15.080;2022-12-20T06:27:17;97210.72;;;-2.74;79.08
53440;BME280;39333;47.044;15.080;2022-12-20T06:29:50;97215.75;;;-2.82;79.91
53440;BME280;39333;47.044;15.080;2022-12-20T06:32:22;97212.47;;;-2.84;80.34
53440;BME280;39333;47.044;15.080;2022-12-20T06:34:50;97205.09;;;-2.89;80.29
53440;BME280;39333;47.044;15.080;2022-12-20T06:37:16;97212.47;;;-2.84;80.49
53440;BME280;39333;47.044;15.080;2022-12-20T06:39:43;97215.91;;;-2.74;80.47
53440;BME280;39333;47.044;15.080;2022-12-20T06:42:10;97211.41;;;-2.72;80.29
53440;BME280;39333;47.044;15.080;2022-12-20T06:44:39;97203.06;;;-2.66;79.95
53440;BME280;39333;47.044;15.080;2022-12-20T06:47:05;97202.25;;;-2.66;79.95
53440;BME280;39333;47.044;15.080;2022-12-20T06:49:32;97200.06;;;-2.71;79.93
53440;BME280;39333;47.044;15.080;2022-12-20T06:52:03;97211.28;;;-2.61;79.94
53440;BME280;39333;47.044;15.080;2022-12-20T06:54:40;97206.34;;;-2.54;79.66
53440;BME280;39333;47.044;15.080;2022-12-20T06:57:07;97205.41;;;-2.63;79.21
53440;BME280;39333;47.044;15.080;2022-12-20T06:59:34;97204.97;;;-2.68;79.66
53440;BME280;39333;47.044;15.080;2022-12-20T07:02:00;97211.44;;;-2.62;79.41
53440;BME280;39333;47.044;15.080;2022-12-20T07:04:28;97214.00;;;-2.72;79.44
53440;BME280;39333;47.044;15.080;2022-12-20T07:06:55;97209.34;;;-2.78;79.75
53440;BME280;39333;47.044;15.080;2022-12-20T07:09:22;97203.47;;;-2.80;79.93
53440;BME280;39333;47.044;15.080;2022-12-20T07:11:49;97210.31;;;-2.69;79.77
53440;BME280;39333;47.044;15.080;2022-12-20T07:14:17;97212.38;;;-2.63;79.87
53440;BME280;39333;47.044;15.080;2022-12-20T07:16:44;97209.09;;;-2.56;79.78
53440;BME280;39333;47.044;15.080;2022-12-20T07:19:12;97210.72;;;-2.55;79.27
53440;BME280;39333;47.044;15.080;2022-12-20T07:21:39;97222.75;;;-2.54;79.33
53440;BME280;39333;47.044;15.080;2022-12-20T07:24:06;97219.75;;;-2.49;78.90
53440;BME280;39333;47.044;15.080;2022-12-20T07:26:33;97209.63;;;-2.52;79.14
53440;BME280;39333;47.044;15.080;2022-12-20T07:29:00;97205.81;;;-2.48;79.03
53440;BME280;39333;47.044;15.080;2022-12-20T07:31:27;97218.09;;;-2.40;79.25
53440;BME280;39333;47.044;15.080;2022-12-20T07:33:54;97212.38;;;-2.34;78.87
53440;BME280;39333;47.044;15.080;2022-12-20T07:36:20;97214.41;;;-2.38;79.07
53440;BME280;39333;47.044;15.080;2022-12-20T07:38:47;97215.25;;;-2.37;79.01
53440;BME280;39333;47.044;15.080;2022-12-20T07:41:16;97219.06;;;-2.61;79.21
53440;BME280;39333;47.044;15.080;2022-12-20T07:43:44;97202.38;;;-2.68;79.89
53440;BME280;39333;47.044;15.080;2022-12-20T07:46:15;97199.78;;;-2.68;79.86
53440;BME280;39333;47.044;15.080;2022-12-20T07:48:43;97204.47;;;-2.62;80.34
53440;BME280;39333;47.044;15.080;2022-12-20T07:51:28;97216.22;;;-2.48;79.93
53440;BME280;39333;47.044;15.080;2022-12-20T07:54:01;97212.63;;;-2.37;79.75
53440;BME280;39333;47.044;15.080;2022-12-20T07:56:32;97221.28;;;-2.27;79.46
53440;BME280;39333;47.044;15.080;2022-12-20T07:59:08;97212.22;;;-2.23;79.12
53440;BME280;39333;47.044;15.080;2022-12-20T08:01:36;97207.44;;;-2.18;78.89
53440;BME280;39333;47.044;15.080;2022-12-20T08:04:07;97202.50;;;-2.21;78.68
53440;BME280;39333;47.044;15.080;2022-12-20T08:06:37;97199.66;;;-2.18;78.96
53440;BME280;39333;47.044;15.080;2022-12-20T08:09:06;97196.91;;;-2.26;78.56
53440;BME280;39333;47.044;15.080;2022-12-20T08:11:35;97197.34;;;-2.31;78.93
53440;BME280;39333;47.044;15.080;2022-12-20T08:14:04;97204.44;;;-2.23;79.29
53440;BME280;39333;47.044;15.080;2022-12-20T08:16:32;97201.72;;;-2.31;78.84
53440;BME280;39333;47.044;15.080;2022-12-20T08:18:59;97206.91;;;-2.31;78.99
53440;BME280;39333;47.044;15.080;2022-12-20T08:21:26;97203.59;;;-2.24;78.90
53440;BME280;39333;47.044;15.080;2022-12-20T08:23:54;97192.56;;;-2.35;78.98
53440;BME280;39333;47.044;15.080;2022-12-20T08:26:22;97201.56;;;-2.39;78.74
53440;BME280;39333;47.044;15.080;2022-12-20T08:28:49;97193.91;;;-2.41;79.19
53440;BME280;39333;47.044;15.080;2022-12-20T08:31:15;97202.13;;;-2.36;79.47
53440;BME280;39333;47.044;15.080;2022-12-20T08:33:42;97204.84;;;-2.37;79.27
53440;BME280;39333;47.044;15.080;2022-12-20T08:36:10;97197.63;;;-2.34;78.94
53440;BME280;39333;47.044;15.080;2022-12-20T08:38:38;97208.28;;;-2.27;79.20
53440;BME280;39333;47.044;15.080;2022-12-20T08:41:08;97206.91;;;-2.41;79.01
53440;BME280;39333;47.044;15.080;2022-12-20T08:43:36;97200.88;;;-2.41;79.90
53440;BME280;39333;47.044;15.080;2022-12-20T08:46:04;97193.94;;;-2.31;79.90
53440;BME280;39333;47.044;15.080;2022-12-20T08:48:33;97192.81;;;-2.19;79.30
53440;BME280;39333;47.044;15.080;2022-12-20T08:51:03;97197.56;;;-2.05;79.10
53440;BME280;39333;47.044;15.080;2022-12-20T08:53:31;97192.66;;;-1.98;78.36
53440;BME280;39333;47.044;15.080;2022-12-20T08:56:15;97190.97;;;-1.90;78.33
53440;BME280;39333;47.044;15.080;2022-12-20T08:58:43;97185.22;;;-1.84;78.03
53440;BME280;39333;47.044;15.080;2022-12-20T09:01:13;97181.66;;;-1.83;77.79
53440;BME280;39333;47.044;15.080;2022-12-20T09:03:40;97174.00;;;-1.84;77.60
53440;BME280;39333;47.044;15.080;2022-12-20T09:06:16;97176.03;;;-1.78;77.34
53440;BME280;39333;47.044;15.080;2022-12-20T09:08:43;97169.44;;;-1.72;77.40
53440;BME280;39333;47.044;15.080;2022-12-20T09:11:17;97172.88;;;-1.72;77.40
53440;BME280;39333;47.044;15.080;2022-12-20T09:13:45;97169.97;;;-1.69;77.04
53440;BME280;39333;47.044;15.080;2022-12-20T09:16:15;97166.50;;;-1.60;76.67
53440;BME280;39333;47.044;15.080;2022-12-20T09:18:42;97173.06;;;-1.56;76.60
53440;BME280;39333;47.044;15.080;2022-12-20T09:21:10;97172.78;;;-1.53;76.23
53440;BME280;39333;47.044;15.080;2022-12-20T09:23:37;97179.91;;;-1.55;75.61
53440;BME280;39333;47.044;15.080;2022-12-20T09:26:11;97168.28;;;-1.51;75.75
53440;BME280;39333;47.044;15.080;2022-12-20T09:28:38;97167.31;;;-1.50;76.08
53440;BME280;39333;47.044;15.080;2022-12-20T09:31:07;97158.84;;;-1.61;76.09
53440;BME280;39333;47.044;15.080;2022-12-20T09:33:34;97161.84;;;-1.56;76.30
53440;BME280;39333;47.044;15.080;2022-12-20T09:36:03;97152.53;;;-1.49;76.15
53440;BME280;39333;47.044;15.080;2022-12-20T09:38:30;97161.28;;;-1.50;75.96
53440;BME280;39333;47.044;15.080;2022-12-20T09:41:00;97158.03;;;-1.62;76.00
53440;BME280;39333;47.044;15.080;2022-12-20T09:43:28;97151.06;;;-1.61;75.94
53440;BME280;39333;47.044;15.080;2022-12-20T09:45:58;97162.44;;;-1.62;76.22
53440;BME280;39333;47.044;15.080;2022-12-20T09:48:36;97144.25;;;-1.62;76.20
53440;BME280;39333;47.044;15.080;2022-12-20T09:59:27;97151.13;;;-1.44;75.74
53440;BME280;39333;47.044;15.080;2022-12-20T10:01:58;97147.13;;;-1.38;75.74
53440;BME280;39333;47.044;15.080;2022-12-20T10:04:45;97139.56;;;-1.31;75.77
53440;BME280;39333;47.044;15.080;2022-12-20T10:15:53;97129.56;;;-1.09;74.65
53440;BME280;39333;47.044;15.080;2022-12-20T10:23:57;97136.03;;;-0.95;74.04
53440;BME280;39333;47.044;15.080;2022-12-20T10:26:26;97127.56;;;-0.97;73.76
53440;BME280;39333;47.044;15.080;2022-12-20T10:28:54;97120.56;;;-1.14;73.53
53440;BME280;39333;47.044;15.080;2022-12-20T10:31:21;97124.78;;;-1.13;74.29
53440;BME280;39333;47.044;15.080;2022-12-20T10:33:48;97112.31;;;-1.10;74.57
53440;BME280;39333;47.044;15.080;2022-12-20T10:36:25;97110.75;;;-1.02;74.42
53440;BME280;39333;47.044;15.080;2022-12-20T10:38:58;97103.34;;;-0.97;74.61
53440;BME280;39333;47.044;15.080;2022-12-20T10:41:45;97087.09;;;-0.91;74.30
53440;BME280;39333;47.044;15.080;2022-12-20T10:44:22;97084.22;;;-0.88;74.20
53440;BME280;39333;47.044;15.080;2022-12-20T10:46:52;97078.72;;;-0.85;73.91
53440;BME280;39333;47.044;15.080;2022-12-20T10:54:30;97073.88;;;-1.16;74.22
53440;BME280;39333;47.044;15.080;2022-12-20T10:56:59;97071.19;;;-1.24;75.06
53440;BME280;39333;47.044;15.080;2022-12-20T10:59:34;97055.19;;;-1.29;75.08
53440;BME280;39333;47.044;15.080;2022-12-20T11:05:25;97043.31;;;-1.31;75.08
53440;BME280;39333;47.044;15.080;2022-12-20T11:08:20;97035.03;;;-1.45;74.91
53440;BME280;39333;47.044;15.080;2022-12-20T11:11:21;97034.91;;;-1.25;75.59
53440;BME280;39333;47.044;15.080;2022-12-20T11:14:12;97032.41;;;-1.17;75.09
53440;BME280;39333;47.044;15.080;2022-12-20T11:16:46;97020.63;;;-1.21;75.31
53440;BME280;39333;47.044;15.080;2022-12-20T11:22:33;97023.09;;;-1.20;75.03
53440;BME280;39333;47.044;15.080;2022-12-20T11:39:36;96996.28;;;-0.94;75.09
53440;BME280;39333;47.044;15.080;2022-12-20T11:45:34;96990.50;;;-0.88;74.50
53440;BME280;39333;47.044;15.080;2022-12-20T11:54:13;96983.09;;;-1.19;75.37
53440;BME280;39333;47.044;15.080;2022-12-20T11:56:49;96975.06;;;-1.08;75.45
53440;BME280;39333;47.044;15.080;2022-12-20T11:59:41;96977.41;;;-0.96;75.31
53440;BME280;39333;47.044;15.080;2022-12-20T12:02:13;96978.97;;;-0.86;74.61
53440;BME280;39333;47.044;15.080;2022-12-20T12:04:45;96969.72;;;-0.80;74.56
53440;BME280;39333;47.044;15.080;2022-12-20T12:07:20;96970.06;;;-0.75;74.38
53440;BME280;39333;47.044;15.080;2022-12-20T12:09:57;96972.22;;;-0.71;74.22
53440;BME280;39333;47.044;15.080;2022-12-20T12:12:32;96977.28;;;-0.69;74.05
53440;BME280;39333;47.044;15.080;2022-12-20T12:15:39;96969.81;;;-0.64;74.26
53440;BME280;39333;47.044;15.080;2022-12-20T12:18:24;96959.72;;;-0.67;73.98
53440;BME280;39333;47.044;15.080;2022-12-20T12:26:26;96951.59;;;-0.64;73.95
53440;BME280;39333;47.044;15.080;2022-12-20T12:28:55;96954.66;;;-0.68;74.36
53440;BME280;39333;47.044;15.080;2022-12-20T12:31:45;96953.03;;;-0.69;73.62
53440;BME280;39333;47.044;15.080;2022-12-20T12:44:56;96951.28;;;-0.61;74.21
53440;BME280;39333;47.044;15.080;2022-12-20T12:47:42;96941.47;;;-0.93;73.68
53440;BME280;39333;47.044;15.080;2022-12-20T12:53:05;96947.38;;;-1.09;74.94
53440;BME280;39333;47.044;15.080;2022-12-20T12:55:53;96945.88;;;-1.37;75.49
53440;BME280;39333;47.044;15.080;2022-12-20T13:09:21;96954.06;;;-1.32;75.62
53440;BME280;39333;47.044;15.080;2022-12-20T13:13:11;96949.88;;;-1.25;76.25
53440;BME280;39333;47.044;15.080;2022-12-20T13:17:47;96955.91;;;-1.42;75.95
53440;BME280;39333;47.044;15.080;2022-12-20T13:25:37;96962.00;;;-1.16;75.78
53440;BME280;39333;47.044;15.080;2022-12-20T13:33:42;96947.69;;;-1.12;76.37
53440;BME280;39333;47.044;15.080;2022-12-20T13:43:46;96956.47;;;-1.13;76.25
53440;BME280;39333;47.044;15.080;2022-12-20T13:46:42;96949.03;;;-1.08;76.38
53440;BME280;39333;47.044;15.080;2022-12-20T13:49:25;96952.66;;;-1.00;76.49
53440;BME280;39333;47.044;15.080;2022-12-20T13:54:42;96939.44;;;-1.07;75.98
53440;BME280;39333;47.044;15.080;2022-12-20T13:57:31;96937.88;;;-1.00;76.26
53440;BME280;39333;47.044;15.080;2022-12-20T14:00:01;96934.34;;;-1.17;76.21
53440;BME280;39333;47.044;15.080;2022-12-20T14:02:35;96929.03;;;-1.07;76.40
53440;BME280;39333;47.044;15.080;2022-12-20T14:05:14;96926.13;;;-1.04;76.49
53440;BME280;39333;47.044;15.080;2022-12-20T14:07:41;96924.50;;;-1.05;76.21
53440;BME280;39333;47.044;15.080;2022-12-20T14:10:20;96918.31;;;-1.04;76.20
53440;BME280;39333;47.044;15.080;2022-12-20T14:12:52;96912.97;;;-1.02;76.33
53440;BME280;39333;47.044;15.080;2022-12-20T14:15:24;96907.38;;;-1.08;76.27
53440;BME280;39333;47.044;15.080;2022-12-20T14:17:55;96914.47;;;-1.18;75.78
53440;BME280;39333;47.044;15.080;2022-12-20T14:20:33;96902.59;;;-1.20;76.12
53440;BME280;39333;47.044;15.080;2022-12-20T14:23:20;96901.25;;;-1.24;76.03
53440;BME280;39333;47.044;15.080;2022-12-20T14:25:54;96899.88;;;-1.36;76.36
53440;BME280;39333;47.044;15.080;2022-12-20T14:28:48;96891.63;;;-1.32;76.60
53440;BME280;39333;47.044;15.080;2022-12-20T14:34:05;96893.16;;;-1.21;76.84
53440;BME280;39333;47.044;15.080;2022-12-20T14:36:39;96897.09;;;-1.17;76.39
53440;BME280;39333;47.044;15.080;2022-12-20T14:39:26;96891.06;;;-1.18;76.35
53440;BME280;39333;47.044;15.080;2022-12-20T14:44:25;96889.38;;;-1.45;76.90
53440;BME280;39333;47.044;15.080;2022-12-20T14:49:46;96887.97;;;-1.39;77.16
53440;BME280;39333;47.044;15.080;2022-12-20T14:54:56;96891.34;;;-1.47;77.20
53440;BME280;39333;47.044;15.080;2022-12-20T15:13:35;96888.69;;;-1.29;76.67
53440;BME280;39333;47.044;15.080;2022-12-20T15:18:41;96889.69;;;-1.30;76.75
53440;BME280;39333;47.044;15.080;2022-12-20T15:21:17;96887.88;;;-1.29;76.62
53440;BME280;39333;47.044;15.080;2022-12-20T15:23:52;96883.81;;;-1.32;76.87
53440;BME280;39333;47.044;15.080;2022-12-20T15:26:21;96889.09;;;-1.42;76.77
53440;BME280;39333;47.044;15.080;2022-12-20T15:28:49;96875.75;;;-1.47;76.78
53440;BME280;39333;47.044;15.080;2022-12-20T15:31:18;96872.47;;;-1.49;77.21
53440;BME280;39333;47.044;15.080;2022-12-20T15:33:46;96878.16;;;-1.45;76.87
53440;BME280;39333;47.044;15.080;2022-12-20T15:36:16;96880.34;;;-1.58;76.83
53440;BME280;39333;47.044;15.080;2022-12-20T15:38:44;96880.34;;;-1.58;77.42
53440;BME280;39333;47.044;15.080;2022-12-20T15:41:32;96871.59;;;-1.57;77.64
53440;BME280;39333;47.044;15.080;2022-12-20T15:44:11;96863.25;;;-1.61;77.64
53440;BME280;39333;47.044;15.080;2022-12-20T15:46:40;96870.91;;;-1.59;77.52
53440;BME280;39333;47.044;15.080;2022-12-20T15:49:16;96862.38;;;-1.52;77.99